Time;durP1;ratioP1;P1;durP2;ratioP2;P2;SDS_P1;SDS_P2;PMS_P1;PMS_P2;Temp;Humidity;BMP_temperature;BMP_pressure;BME280_temperature;BME280_humidity;BME280_pressure;Samples;Min_cycle;Max_cycle;Signal;HPM_P1;HPM_P2
2024/01/13 00:03:26;;;;;;;93.05;29.73;;;;;;;3.05;100.00;101877.50;8377769;28;20053;-57
2024/01/13 00:07:26;;;;;;;80.20;27.40;;;;;;;3.07;100.00;101870.31;8371520;28;20043;-57
2024/01/13 00:11:27;;;;;;;88.20;28.85;;;;;;;3.04;100.00;101870.44;8367879;28;20037;-58
2024/01/13 00:15:27;;;;;;;82.97;26.48;;;;;;;3.05;100.00;101865.97;8373392;28;20044;-59
2024/01/13 00:19:28;;;;;;;76.50;26.60;;;;;;;3.06;100.00;101857.91;8366932;28;20043;-56
2024/01/13 00:23:28;;;;;;;85.97;27.75;;;;;;;3.08;100.00;101855.16;8370957;28;20048;-56
2024/01/13 00:27:28;;;;;;;80.18;26.92;;;;;;;3.09;100.00;101846.22;8369072;28;20061;-56
2024/01/13 00:31:29;;;;;;;85.22;25.05;;;;;;;3.13;100.00;101843.34;8372417;28;20041;-57
2024/01/13 00:35:29;;;;;;;78.88;24.23;;;;;;;3.18;100.00;101844.06;8372149;28;20420;-56
2024/01/13 00:39:31;;;;;;;70.13;24.60;;;;;;;3.17;100.00;101834.28;8372817;28;20060;-56
2024/01/13 00:43:32;;;;;;;72.95;24.25;;;;;;;3.19;100.00;101827.06;8369074;28;20041;-57
2024/01/13 00:47:33;;;;;;;79.57;25.08;;;;;;;3.17;100.00;101823.59;8373353;28;20047;-57
2024/01/13 00:51:33;;;;;;;86.32;25.98;;;;;;;3.13;100.00;101816.63;8366465;28;20068;-56
2024/01/13 00:55:35;;;;;;;74.32;25.60;;;;;;;3.16;100.00;101821.84;8370926;28;20048;-56
2024/01/13 00:59:36;;;;;;;73.70;26.05;;;;;;;3.16;100.00;101819.19;8367700;28;20049;-56
2024/01/13 01:03:36;;;;;;;76.70;24.60;;;;;;;3.10;100.00;101797.19;8366056;28;20056;-58
2024/01/13 01:07:36;;;;;;;69.38;24.05;;;;;;;3.12;100.00;101796.22;8339347;28;20044;-56
2024/01/13 01:11:37;;;;;;;79.30;25.60;;;;;;;3.19;100.00;101803.03;8348145;28;20040;-58
2024/01/13 01:15:37;;;;;;;89.65;26.65;;;;;;;3.19;100.00;101797.69;8313417;28;20051;-58
2024/01/13 01:19:38;;;;;;;80.95;25.02;;;;;;;3.17;100.00;101802.22;8336556;28;20041;-57
2024/01/13 01:23:38;;;;;;;80.63;24.33;;;;;;;3.18;100.00;101803.09;8311373;28;20262;-57
2024/01/13 01:27:41;;;;;;;71.80;25.38;;;;;;;3.19;100.00;101794.13;8315885;28;20044;-58
2024/01/13 01:31:41;;;;;;;82.80;24.92;;;;;;;3.17;100.00;101796.88;8313506;28;20040;-58
2024/01/13 01:35:42;;;;;;;82.13;25.25;;;;;;;3.17;100.00;101796.88;8314250;28;20406;-57
2024/01/13 01:39:42;;;;;;;74.53;24.42;;;;;;;3.15;100.00;101787.19;8314603;28;20397;-58
2024/01/13 01:43:43;;;;;;;78.80;26.15;;;;;;;3.12;100.00;101792.66;8311177;28;20656;-58
2024/01/13 01:47:45;;;;;;;84.93;26.45;;;;;;;3.08;100.00;101791.06;8315872;28;20482;-56
2024/01/13 01:51:45;;;;;;;75.10;25.83;;;;;;;3.01;100.00;101793.09;8366893;28;20068;-57
2024/01/13 01:55:46;;;;;;;78.60;25.33;;;;;;;3.01;100.00;101785.06;8370451;28;20500;-56
2024/01/13 01:59:47;;;;;;;82.53;25.08;;;;;;;3.03;100.00;101779.66;8368463;28;20045;-55
2024/01/13 02:03:48;;;;;;;86.97;25.98;;;;;;;3.05;100.00;101781.34;8370017;28;20044;-57
2024/01/13 02:07:50;;;;;;;74.20;24.83;;;;;;;3.12;100.00;101781.97;8370074;28;20112;-55
2024/01/13 02:11:51;;;;;;;73.97;23.80;;;;;;;3.10;100.00;101773.13;8368323;28;20043;-56
2024/01/13 02:15:51;;;;;;;74.78;23.80;;;;;;;3.10;100.00;101767.78;8370988;28;20045;-56
2024/01/13 02:19:52;;;;;;;69.68;24.52;;;;;;;3.13;100.00;101779.22;8365441;28;20704;-56
2024/01/13 02:23:52;;;;;;;72.68;23.58;;;;;;;3.10;100.00;101771.34;8369378;28;20040;-58
2024/01/13 02:27:52;;;;;;;66.03;23.88;;;;;;;3.08;100.00;101770.53;8367895;28;20041;-58
2024/01/13 02:31:53;;;;;;;71.28;23.58;;;;;;;3.14;100.00;101761.41;8370318;28;20521;-57
2024/01/13 02:35:53;;;;;;;68.93;23.88;;;;;;;3.16;100.00;101752.38;8368748;28;20241;-57
2024/01/13 02:39:54;;;;;;;70.43;24.15;;;;;;;3.15;100.00;101745.31;8368053;28;20044;-58
2024/01/13 02:43:54;;;;;;;72.30;24.90;;;;;;;3.17;100.00;101748.78;8345492;28;20059;-58
2024/01/13 02:48:00;;;;;;;82.53;26.70;;;;;;;3.18;100.00;101753.22;8335062;28;20539;-57
2024/01/13 02:52:01;;;;;;;70.35;23.70;;;;;;;3.15;100.00;101737.31;8283709;28;20037;-55
2024/01/13 02:56:01;;;;;;;77.25;25.30;;;;;;;3.16;100.00;101733.69;8309423;28;20037;-55
2024/01/13 03:00:04;;;;;;;74.82;23.90;;;;;;;3.19;100.00;101736.22;8287853;28;20329;-55
2024/01/13 03:04:06;;;;;;;67.28;23.02;;;;;;;3.18;100.00;101726.50;8284786;28;20402;-55
2024/01/13 03:08:07;;;;;;;70.93;24.65;;;;;;;3.14;100.00;101722.19;8305555;28;20042;-57
2024/01/13 03:12:07;;;;;;;68.45;23.75;;;;;;;3.06;100.00;101704.75;8313342;28;20619;-55
2024/01/13 03:16:08;;;;;;;73.07;24.08;;;;;;;3.16;100.00;101704.31;8283728;28;20168;-56
2024/01/13 03:20:10;;;;;;;64.78;22.83;;;;;;;3.14;100.00;101706.16;8284757;28;20110;-55
2024/01/13 03:24:10;;;;;;;57.47;21.67;;;;;;;3.14;100.00;101705.31;8315017;28;20523;-56
2024/01/13 03:28:11;;;;;;;68.13;22.50;;;;;;;3.14;100.00;101710.66;8328020;28;20493;-56
2024/01/13 03:32:11;;;;;;;70.72;22.25;;;;;;;3.11;100.00;101703.63;8286904;28;20293;-55
2024/01/13 03:36:12;;;;;;;70.95;23.65;;;;;;;3.12;100.00;101691.13;8284143;28;20106;-56
2024/01/13 03:40:12;;;;;;;68.18;23.80;;;;;;;3.11;100.00;101679.56;8284550;28;20120;-56
2024/01/13 03:44:13;;;;;;;58.22;22.05;;;;;;;3.15;100.00;101691.00;8282306;28;20037;-55
2024/01/13 03:48:13;;;;;;;59.47;23.27;;;;;;;3.11;100.00;101679.56;8281272;28;20045;-56
2024/01/13 03:52:14;;;;;;;70.43;22.58;;;;;;;3.13;100.00;101676.84;8280420;28;20045;-55
2024/01/13 03:56:14;;;;;;;69.40;23.63;;;;;;;3.09;100.00;101665.44;8322398;28;20493;-58
2024/01/13 04:00:15;;;;;;;65.15;23.15;;;;;;;3.08;100.00;101658.34;8341275;28;20045;-58
2024/01/13 04:04:15;;;;;;;65.35;24.08;;;;;;;3.09;100.00;101657.41;8339348;28;20527;-58
2024/01/13 04:08:17;;;;;;;61.35;23.20;;;;;;;3.02;100.00;101647.91;8341748;28;20029;-58
2024/01/13 04:12:18;;;;;;;71.63;23.30;;;;;;;3.01;100.00;101645.31;8338513;28;20408;-58
2024/01/13 04:16:18;;;;;;;64.40;24.65;;;;;;;3.03;100.00;101644.31;8339363;28;20064;-58
2024/01/13 04:20:19;;;;;;;63.88;23.90;;;;;;;3.04;100.00;101655.84;8334146;28;20044;-58
2024/01/13 04:24:19;;;;;;;74.03;24.90;;;;;;;3.04;100.00;101646.03;8337954;28;20029;-56
2024/01/13 04:28:20;;;;;;;65.40;23.40;;;;;;;2.98;100.00;101643.63;8340378;28;20036;-58
2024/01/13 04:32:20;;;;;;;75.47;23.67;;;;;;;2.97;100.00;101649.03;8353576;28;20032;-58
2024/01/13 04:36:20;;;;;;;66.15;23.30;;;;;;;2.97;100.00;101644.59;8371013;28;20052;-56
2024/01/13 04:40:21;;;;;;;65.70;21.92;;;;;;;2.96;100.00;101641.97;8373066;28;20049;-57
2024/01/13 04:44:21;;;;;;;57.00;22.50;;;;;;;2.94;100.00;101634.03;8369935;28;20130;-57
2024/01/13 04:48:22;;;;;;;60.50;22.63;;;;;;;2.95;100.00;101635.75;8369688;28;20060;-58
2024/01/13 04:52:22;;;;;;;64.93;23.48;;;;;;;2.96;100.00;101620.63;8370518;28;20474;-58
2024/01/13 04:56:23;;;;;;;62.83;22.35;;;;;;;2.97;100.00;101617.00;8372290;28;20045;-58
2024/01/13 05:00:23;;;;;;;61.88;23.60;;;;;;;3.00;100.00;101616.88;8347487;28;20314;-57
2024/01/13 05:04:24;;;;;;;62.78;23.38;;;;;;;2.96;100.00;101608.09;8320740;28;20291;-58
2024/01/13 05:08:24;;;;;;;67.55;23.58;;;;;;;2.98;100.00;101603.56;8316288;28;20548;-57
2024/01/13 05:12:25;;;;;;;59.28;22.33;;;;;;;3.03;100.00;101604.25;8319463;28;20436;-57
2024/01/13 05:16:26;;;;;;;58.28;22.30;;;;;;;3.10;100.00;101602.16;8316892;28;20478;-56
2024/01/13 05:20:27;;;;;;;58.83;22.23;;;;;;;3.15;100.00;101608.19;8315498;28;20366;-58
2024/01/13 05:24:27;;;;;;;50.70;21.10;;;;;;;3.16;100.00;101616.13;8316194;28;20052;-58
2024/01/13 05:28:28;;;;;;;57.67;20.08;;;;;;;3.20;100.00;101609.72;8339344;28;20400;-59
2024/01/13 05:32:29;;;;;;;52.35;20.85;;;;;;;3.17;100.00;101599.16;8374419;28;20048;-58
2024/01/13 05:36:29;;;;;;;50.38;18.83;;;;;;;3.19;100.00;101605.31;8374566;28;20041;-58
2024/01/13 05:40:30;;;;;;;54.58;21.05;;;;;;;3.19;100.00;101601.75;8372771;28;20045;-57
2024/01/13 05:44:30;;;;;;;49.13;19.60;;;;;;;3.16;100.00;101591.22;8374136;28;20060;-59
2024/01/13 05:48:30;;;;;;;43.55;18.88;;;;;;;3.21;100.00;101591.88;8372553;28;20037;-59
2024/01/13 05:52:32;;;;;;;45.40;19.05;;;;;;;3.22;100.00;101589.16;8372672;28;20041;-57
2024/01/13 05:56:32;;;;;;;48.28;20.42;;;;;;;3.26;100.00;101593.41;8372311;28;20608;-56
2024/01/13 06:00:33;;;;;;;59.25;20.92;;;;;;;3.31;100.00;101583.41;8373917;28;20059;-58
2024/01/13 06:04:33;;;;;;;48.75;20.13;;;;;;;3.39;100.00;101575.88;8374118;28;20044;-55
2024/01/13 06:08:35;;;;;;;43.60;19.67;;;;;;;3.38;100.00;101582.19;8372124;28;20051;-55
2024/01/13 06:12:35;;;;;;;49.78;20.48;;;;;;;3.42;100.00;101582.91;8372575;28;20042;-55
2024/01/13 06:16:36;;;;;;;49.38;19.73;;;;;;;3.43;100.00;101573.94;8373471;28;20043;-55
2024/01/13 06:20:36;;;;;;;54.85;23.25;;;;;;;3.47;100.00;101570.19;8369653;28;20389;-55
2024/01/13 06:24:37;;;;;;;56.65;22.77;;;;;;;3.45;100.00;101580.94;8374362;28;20071;-55
2024/01/13 06:28:37;;;;;;;48.58;19.88;;;;;;;3.52;100.00;101565.50;8352590;28;20343;-57
2024/01/13 06:32:37;;;;;;;42.70;19.50;;;;;;;3.52;100.00;101569.06;8322984;28;20037;-57
2024/01/13 06:36:38;;;;;;;50.17;20.70;;;;;;;3.54;100.00;101569.00;8324892;28;20299;-57
2024/01/13 06:40:38;;;;;;;53.05;22.92;;;;;;;3.55;100.00;101563.56;8322363;28;20298;-55
2024/01/13 06:44:39;;;;;;;54.78;21.77;;;;;;;3.44;100.00;101549.81;8369812;28;20089;-57
2024/01/13 06:48:39;;;;;;;47.40;20.30;;;;;;;3.47;100.00;101560.38;8376782;28;20128;-56
2024/01/13 06:52:40;;;;;;;53.20;23.75;;;;;;;3.49;100.00;101550.50;8360643;28;20378;-55
2024/01/13 06:56:41;;;;;;;55.47;24.95;;;;;;;3.53;100.00;101553.88;8322165;28;20436;-56
2024/01/13 07:00:42;;;;;;;48.97;23.40;;;;;;;3.53;100.00;101562.75;8322869;28;20048;-55
2024/01/13 07:04:44;;;;;;;54.33;24.60;;;;;;;3.55;100.00;101568.91;8323851;28;20113;-57
2024/01/13 07:08:45;;;;;;;52.20;24.40;;;;;;;3.53;100.00;101568.13;8319913;28;20045;-55
2024/01/13 07:12:47;;;;;;;52.75;23.98;;;;;;;3.56;100.00;101573.31;8319839;28;20624;-56
2024/01/13 07:16:47;;;;;;;54.72;26.17;;;;;;;3.55;100.00;101563.56;8321280;28;20310;-56
2024/01/13 07:20:49;;;;;;;51.72;27.52;;;;;;;3.56;100.00;101559.06;8336429;28;20133;-59
2024/01/13 07:24:50;;;;;;;55.63;26.48;;;;;;;3.50;100.00;101544.19;8376617;28;20037;-58
2024/01/13 07:28:50;;;;;;;59.63;28.27;;;;;;;3.49;100.00;101536.25;8377480;28;20036;-57
2024/01/13 07:32:51;;;;;;;60.10;27.23;;;;;;;3.42;100.00;101524.97;8383924;28;20067;-58
2024/01/13 07:36:52;;;;;;;61.70;28.50;;;;;;;3.45;100.00;101514.13;8385976;28;20075;-57
2024/01/13 07:40:52;;;;;;;60.47;28.17;;;;;;;3.54;100.00;101516.38;8375949;28;20041;-58
2024/01/13 07:44:52;;;;;;;56.58;26.52;;;;;;;3.65;100.00;101516.75;8376084;28;20040;-57
2024/01/13 07:48:53;;;;;;;53.65;26.60;;;;;;;3.68;100.00;101515.72;8374882;28;20445;-57
2024/01/13 07:52:53;;;;;;;50.45;24.48;;;;;;;3.67;100.00;101504.19;8378230;28;20123;-57
2024/01/13 07:56:54;;;;;;;47.95;24.58;;;;;;;3.72;99.46;101506.63;8377121;28;20048;-58
2024/01/13 08:00:54;;;;;;;50.78;24.52;;;;;;;3.78;98.66;101498.28;8399157;28;20045;-58
2024/01/13 08:04:55;;;;;;;48.83;23.90;;;;;;;3.76;98.20;101479.66;8378029;28;20053;-58
2024/01/13 08:08:56;;;;;;;47.83;22.70;;;;;;;3.76;98.69;101466.28;8375633;28;20400;-57
2024/01/13 08:12:57;;;;;;;43.67;21.95;;;;;;;3.77;98.21;101470.69;8379227;28;20041;-55
2024/01/13 08:16:57;;;;;;;51.45;22.80;;;;;;;3.79;97.75;101438.53;8377826;28;20063;-56
2024/01/13 08:20:58;;;;;;;47.00;22.13;;;;;;;3.79;97.80;101444.72;8374204;28;20040;-56
2024/01/13 08:24:58;;;;;;;42.30;21.67;;;;;;;3.78;98.03;101426.97;8375294;28;20040;-57
2024/01/13 08:28:59;;;;;;;40.67;19.90;;;;;;;3.84;97.40;101453.41;8375699;28;20115;-56
2024/01/13 08:32:59;;;;;;;37.70;19.35;;;;;;;3.87;96.95;101442.56;8377225;28;20567;-55
2024/01/13 08:36:59;;;;;;;40.67;20.60;;;;;;;3.89;96.76;101424.63;8374468;28;20040;-55
2024/01/13 08:41:00;;;;;;;36.13;19.15;;;;;;;3.94;97.23;101409.19;8375947;28;20044;-58
2024/01/13 08:45:00;;;;;;;37.05;16.77;;;;;;;3.98;96.64;101418.81;8372988;28;20039;-56
2024/01/13 08:49:01;;;;;;;39.53;18.45;;;;;;;4.06;96.30;101416.63;8373640;28;20484;-56
2024/01/13 08:53:01;;;;;;;32.88;15.77;;;;;;;4.11;96.10;101415.53;8369639;28;20411;-56
2024/01/13 08:57:04;;;;;;;32.10;15.23;;;;;;;4.16;95.93;101408.13;8374659;28;20056;-56
2024/01/13 09:01:04;;;;;;;25.92;13.75;;;;;;;4.22;95.52;101414.03;8372433;28;20403;-58
2024/01/13 09:05:07;;;;;;;24.73;13.43;;;;;;;4.24;95.39;101403.25;8370177;28;20064;-57
2024/01/13 09:09:08;;;;;;;29.08;13.45;;;;;;;4.22;96.23;101389.06;8367978;28;20044;-58
2024/01/13 09:13:09;;;;;;;28.30;13.98;;;;;;;4.24;96.25;101387.19;8371805;28;20112;-57
2024/01/13 09:17:09;;;;;;;27.70;13.90;;;;;;;4.31;96.28;101388.59;8368538;28;20480;-56
2024/01/13 09:21:12;;;;;;;25.77;13.30;;;;;;;4.35;95.70;101382.13;8369766;28;20055;-58
2024/01/13 09:25:12;;;;;;;24.10;13.45;;;;;;;4.38;95.78;101409.63;8371462;28;20037;-59
2024/01/13 09:29:13;;;;;;;20.08;11.05;;;;;;;4.36;95.68;101382.03;8372999;28;20041;-60
2024/01/13 09:33:13;;;;;;;22.30;11.63;;;;;;;4.38;95.81;101414.97;8374836;28;20044;-59
2024/01/13 09:37:15;;;;;;;21.23;10.95;;;;;;;4.41;95.80;101413.94;8375065;28;20564;-59
2024/01/13 09:41:15;;;;;;;19.05;10.32;;;;;;;4.38;95.58;101414.09;8375141;28;20500;-60
2024/01/13 09:45:17;;;;;;;22.08;11.35;;;;;;;4.38;94.92;101404.25;8370481;28;20455;-59
2024/01/13 09:49:19;;;;;;;20.95;11.50;;;;;;;4.42;94.82;101413.00;8372419;28;20044;-59
2024/01/13 09:53:28;;;;;;;20.35;10.65;;;;;;;4.44;94.28;101411.97;8371772;28;20034;-59
2024/01/13 09:57:29;;;;;;;20.00;11.73;;;;;;;4.41;94.75;101420.16;8372330;28;20042;-59
2024/01/13 10:01:31;;;;;;;24.55;13.77;;;;;;;4.40;94.74;101405.06;8373823;28;20107;-57
2024/01/13 10:05:32;;;;;;;19.02;11.48;;;;;;;4.40;94.93;101409.53;8357003;28;20036;-57
2024/01/13 10:09:32;;;;;;;22.23;12.10;;;;;;;4.42;94.87;101411.19;8343764;28;20048;-59
2024/01/13 10:13:33;;;;;;;26.88;12.57;;;;;;;4.45;94.24;101399.47;8341479;28;20037;-65
2024/01/13 10:17:33;;;;;;;26.08;12.25;;;;;;;4.45;94.52;101402.97;8355429;28;20078;-57
2024/01/13 10:21:35;;;;;;;24.15;12.48;;;;;;;4.43;94.63;101409.38;8340837;28;20086;-59
2024/01/13 10:25:36;;;;;;;23.25;12.52;;;;;;;4.47;94.36;101392.19;8333014;28;20504;-58
2024/01/13 10:29:37;;;;;;;21.42;11.80;;;;;;;4.50;94.66;101400.06;8360869;28;20040;-59
2024/01/13 10:33:40;;;;;;;22.67;12.23;;;;;;;4.53;94.44;101386.53;8354528;28;20060;-56
2024/01/13 10:37:42;;;;;;;23.13;11.95;;;;;;;4.57;94.66;101396.13;8357638;28;20397;-57
2024/01/13 10:41:44;;;;;;;21.15;12.15;;;;;;;4.54;94.91;101375.72;8359729;28;20033;-56
2024/01/13 10:45:49;;;;;;;22.73;12.23;;;;;;;4.49;94.85;101371.56;8351292;28;20037;-57
2024/01/13 10:49:50;;;;;;;23.38;12.27;;;;;;;4.43;94.86;101369.22;8354858;28;20045;-56
2024/01/13 10:53:54;;;;;;;26.48;13.27;;;;;;;4.42;95.40;101365.66;8358376;28;20086;-62
2024/01/13 10:57:55;;;;;;;30.50;12.13;;;;;;;4.38;95.60;101368.59;8342636;28;20038;-56
2024/01/13 11:01:57;;;;;;;26.92;12.80;;;;;;;4.35;96.17;101363.41;8338837;28;20044;-59
2024/01/13 11:05:57;;;;;;;21.67;11.77;;;;;;;4.32;96.73;101347.50;8335381;28;20033;-59
2024/01/13 11:10:00;;;;;;;22.98;12.10;;;;;;;4.29;97.49;101342.31;8337426;28;20586;-59
2024/01/13 11:14:06;;;;;;;25.63;13.05;;;;;;;4.26;97.58;101342.47;8336767;28;20034;-58
2024/01/13 11:18:07;;;;;;;24.13;12.57;;;;;;;4.30;97.35;101328.00;8340648;28;20037;-58
2024/01/13 11:22:30;;;;;;;25.60;13.02;;;;;;;4.29;97.44;101331.59;8340525;28;20041;-58
2024/01/13 11:26:38;;;;;;;29.10;13.48;;;;;;;4.25;97.69;101319.34;8342920;28;20041;-57
2024/01/13 11:30:39;;;;;;;25.80;13.13;;;;;;;4.23;97.65;101311.38;8342862;28;20040;-57
2024/01/13 11:34:39;;;;;;;26.42;13.55;;;;;;;4.29;96.88;101310.19;8341246;28;20092;-57
2024/01/13 11:38:40;;;;;;;26.42;13.68;;;;;;;4.29;96.93;101305.72;8343571;28;20090;-58
2024/01/13 11:42:40;;;;;;;28.60;14.30;;;;;;;4.27;97.57;101296.03;8340059;28;20053;-56
2024/01/13 11:46:59;;;;;;;27.80;15.05;;;;;;;4.25;97.98;101292.56;8343759;28;20040;-56
2024/01/13 11:50:59;;;;;;;40.65;17.95;;;;;;;4.20;97.94;101283.94;8337854;28;20044;-55
2024/01/13 11:55:00;;;;;;;37.67;17.50;;;;;;;4.21;98.35;101283.00;8360650;28;20608;-56
2024/01/13 11:59:00;;;;;;;34.53;17.27;;;;;;;4.23;98.52;101273.91;8363578;28;20033;-57
2024/01/13 12:03:01;;;;;;;36.42;18.10;;;;;;;4.20;99.38;101273.25;8360504;28;20088;-57
2024/01/13 12:07:05;;;;;;;34.40;17.08;;;;;;;4.20;99.67;101267.88;8365802;28;20473;-57
2024/01/13 12:11:05;;;;;;;35.22;17.30;;;;;;;4.21;100.00;101258.91;8362896;28;20045;-57
2024/01/13 12:15:06;;;;;;;37.20;17.30;;;;;;;4.18;100.00;101259.06;8348975;28;20045;-56
2024/01/13 12:19:07;;;;;;;45.55;19.55;;;;;;;4.18;100.00;101259.94;8358934;28;20051;-56
2024/01/13 12:23:08;;;;;;;38.50;18.30;;;;;;;4.12;100.00;101254.91;8346731;28;20409;-57
2024/01/13 12:27:08;;;;;;;40.20;19.45;;;;;;;4.14;100.00;101257.50;8343775;28;20037;-56
2024/01/13 12:31:10;;;;;;;42.90;19.25;;;;;;;4.09;100.00;101250.56;8346186;28;20039;-57
2024/01/13 12:35:12;;;;;;;37.63;20.00;;;;;;;4.11;100.00;101255.00;8343597;28;20029;-56
2024/01/13 12:39:12;;;;;;;45.83;21.05;;;;;;;4.07;100.00;101233.75;8348329;28;20044;-56
2024/01/13 12:43:13;;;;;;;46.72;21.25;;;;;;;4.04;100.00;101228.56;8343953;28;20532;-57
2024/01/13 12:47:16;;;;;;;46.92;21.88;;;;;;;4.05;100.00;101224.94;8361201;28;20032;-56
2024/01/13 12:51:17;;;;;;;47.30;21.10;;;;;;;4.09;100.00;101223.81;8358540;28;20555;-58
2024/01/13 12:55:17;;;;;;;48.20;22.33;;;;;;;4.13;100.00;101218.31;8361100;28;20473;-58
2024/01/13 12:59:19;;;;;;;46.65;22.40;;;;;;;4.11;100.00;101205.00;8355678;28;20053;-58
2024/01/13 13:03:20;;;;;;;46.92;20.50;;;;;;;4.16;100.00;101191.38;8348668;28;20133;-57
2024/01/13 13:07:24;;;;;;;51.33;22.33;;;;;;;4.19;100.00;101175.16;8359653;28;20064;-59
2024/01/13 13:11:26;;;;;;;53.60;23.05;;;;;;;4.24;100.00;101181.13;8343636;28;20041;-59
2024/01/13 13:15:28;;;;;;;46.75;21.38;;;;;;;4.25;100.00;101174.81;8380380;28;20447;-58
2024/01/13 13:19:28;;;;;;;55.03;23.13;;;;;;;4.30;100.00;101167.41;8358300;28;20129;-59
2024/01/13 13:23:29;;;;;;;45.70;22.63;;;;;;;4.30;100.00;101157.56;8353626;28;20045;-59
2024/01/13 13:27:29;;;;;;;47.58;21.35;;;;;;;4.34;100.00;101168.97;8351871;28;20079;-59
2024/01/13 13:31:30;;;;;;;47.92;22.33;;;;;;;4.29;100.00;101166.53;8356371;28;20501;-57
2024/01/13 13:35:30;;;;;;;52.55;23.08;;;;;;;4.31;100.00;101159.31;8356787;28;20484;-56
2024/01/13 13:39:34;;;;;;;49.88;21.85;;;;;;;4.31;100.00;101145.06;8357078;28;20037;-58
2024/01/13 13:43:34;;;;;;;46.13;22.03;;;;;;;4.31;99.84;101153.06;8344962;28;20390;-58
2024/01/13 13:47:35;;;;;;;52.10;22.73;;;;;;;4.28;99.54;101142.53;8343000;28;20280;-58
2024/01/13 13:51:35;;;;;;;50.10;21.75;;;;;;;4.28;99.15;101142.53;8341792;28;20052;-56
2024/01/13 13:55:36;;;;;;;46.35;23.08;;;;;;;4.31;98.90;101137.03;8342560;28;20140;-59
2024/01/13 13:59:36;;;;;;;57.17;23.90;;;;;;;4.32;98.37;101138.72;8340507;28;20048;-62
2024/01/13 14:03:37;;;;;;;46.83;20.75;;;;;;;4.34;98.36;101131.50;8348248;28;20090;-56
2024/01/13 14:07:38;;;;;;;48.63;22.00;;;;;;;4.32;98.13;101128.91;8353780;28;20048;-59
2024/01/13 14:11:38;;;;;;;50.85;21.67;;;;;;;4.32;98.04;101117.31;8352286;28;20036;-58
2024/01/13 14:15:38;;;;;;;53.60;22.52;;;;;;;4.31;97.52;101110.25;8350609;28;20103;-57
2024/01/13 14:19:39;;;;;;;53.28;22.83;;;;;;;4.33;97.62;101117.25;8350195;28;20044;-57
2024/01/13 14:23:40;;;;;;;51.15;23.98;;;;;;;4.33;97.41;101129.78;8350933;28;20118;-57
2024/01/13 14:27:41;;;;;;;54.72;25.75;;;;;;;4.32;97.48;101128.03;8353774;28;20051;-63
2024/01/13 14:31:41;;;;;;;53.30;24.85;;;;;;;4.34;97.31;101131.50;8353307;28;20442;-56
2024/01/13 14:35:42;;;;;;;50.97;23.58;;;;;;;4.35;97.42;101133.22;8353336;28;20098;-55
2024/01/13 14:39:42;;;;;;;66.43;28.70;;;;;;;4.33;97.32;101124.44;8343869;28;20522;-58
2024/01/13 14:43:43;;;;;;;54.58;24.73;;;;;;;4.32;97.55;101131.59;8347397;28;20047;-59
2024/01/13 14:47:43;;;;;;;62.22;24.35;;;;;;;4.30;97.53;101120.09;8351700;28;20090;-59
2024/01/13 14:51:44;;;;;;;57.38;25.73;;;;;;;4.27;98.03;101119.41;8354144;28;20033;-56
2024/01/13 14:55:44;;;;;;;59.72;25.60;;;;;;;4.22;98.23;101116.13;8359328;28;20056;-58
2024/01/13 14:59:45;;;;;;;61.67;27.27;;;;;;;4.24;97.88;101114.25;8355257;28;20041;-57
2024/01/13 15:03:45;;;;;;;56.88;25.77;;;;;;;4.25;97.98;101105.25;8358239;28;20040;-57
2024/01/13 15:07:47;;;;;;;57.50;24.27;;;;;;;4.22;98.01;101100.94;8358758;28;20533;-56
2024/01/13 15:11:49;;;;;;;61.25;25.83;;;;;;;4.18;98.52;101104.75;8358160;28;20515;-56
2024/01/13 15:15:49;;;;;;;60.92;24.92;;;;;;;4.18;98.67;101095.84;8358714;28;20048;-57
2024/01/13 15:19:50;;;;;;;65.22;25.45;;;;;;;4.21;98.41;101087.66;8358180;28;20178;-56
2024/01/13 15:23:51;;;;;;;60.47;25.38;;;;;;;4.22;98.34;101071.50;8356829;28;20045;-55
2024/01/13 15:27:54;;;;;;;64.38;26.63;;;;;;;4.23;97.93;101070.53;8357717;28;20055;-56
2024/01/13 15:31:55;;;;;;;57.33;25.45;;;;;;;4.18;98.24;101061.06;8357189;28;20591;-56
2024/01/13 15:35:56;;;;;;;64.80;26.17;;;;;;;4.17;98.59;101065.53;8357498;28;20214;-56
2024/01/13 15:39:56;;;;;;;58.47;25.77;;;;;;;4.16;99.03;101068.31;8353519;28;20520;-55
2024/01/13 15:43:57;;;;;;;61.45;26.60;;;;;;;4.15;98.62;101067.47;8347332;28;20412;-58
2024/01/13 15:47:57;;;;;;;64.03;27.13;;;;;;;4.11;99.65;101065.06;8354960;28;20040;-55
2024/01/13 15:51:58;;;;;;;57.47;25.02;;;;;;;4.11;99.73;101054.34;8341863;28;20099;-55
2024/01/13 15:55:58;;;;;;;70.10;27.80;;;;;;;4.11;99.63;101071.25;8340885;28;20468;-55
2024/01/13 15:59:59;;;;;;;59.72;25.13;;;;;;;4.09;99.82;101065.97;8356325;28;20041;-55
2024/01/13 16:03:59;;;;;;;63.35;25.98;;;;;;;4.09;100.00;101057.94;8355760;28;20510;-56
2024/01/13 16:08:00;;;;;;;63.42;27.08;;;;;;;4.04;99.84;101060.03;8338919;28;20045;-56
2024/01/13 16:12:01;;;;;;;60.22;25.08;;;;;;;4.05;99.75;101045.72;8348143;28;20049;-57
2024/01/13 16:16:04;;;;;;;65.97;26.50;;;;;;;4.08;99.85;101036.63;8341629;28;20044;-55
2024/01/13 16:20:06;;;;;;;63.97;27.00;;;;;;;4.07;99.17;101027.78;8348683;28;20041;-56
2024/01/13 16:24:09;;;;;;;59.20;24.63;;;;;;;4.05;99.19;101040.34;8379462;28;20041;-55
2024/01/13 16:28:10;;;;;;;59.92;26.25;;;;;;;4.06;99.33;101035.88;8381007;28;20048;-56
2024/01/13 16:32:10;;;;;;;62.67;26.40;;;;;;;4.06;98.82;101031.38;8381282;28;20039;-61
2024/01/13 16:36:11;;;;;;;64.30;25.38;;;;;;;4.05;99.00;101029.66;8371477;28;20037;-56
2024/01/13 16:40:12;;;;;;;63.65;25.92;;;;;;;4.05;99.17;101032.34;8355620;28;20040;-56
2024/01/13 16:44:12;;;;;;;63.78;25.27;;;;;;;4.06;99.31;101042.06;8349022;28;20044;-56
2024/01/13 16:48:13;;;;;;;60.88;25.85;;;;;;;4.04;99.21;101041.31;8351718;28;20044;-56
2024/01/13 16:52:13;;;;;;;57.35;24.70;;;;;;;4.04;99.38;101046.66;8350989;28;20496;-56
2024/01/13 16:56:14;;;;;;;61.38;25.63;;;;;;;3.99;99.76;101051.41;8351699;28;20075;-56
2024/01/13 17:00:18;;;;;;;62.15;25.73;;;;;;;3.93;100.00;101046.41;8361071;28;20037;-56
2024/01/13 17:04:19;;;;;;;67.53;28.00;;;;;;;3.93;99.83;101049.06;8336512;28;20063;-59
2024/01/13 17:08:19;;;;;;;62.78;26.88;;;;;;;3.88;100.00;101053.81;8337235;28;20045;-57
2024/01/13 17:12:22;;;;;;;69.68;29.95;;;;;;;3.87;100.00;101060.09;8347338;28;20076;-57
2024/01/13 17:16:23;;;;;;;67.53;28.88;;;;;;;3.84;100.00;101052.25;8351033;28;20041;-57
2024/01/13 17:20:23;;;;;;;70.68;27.50;;;;;;;3.82;100.00;101055.97;8350592;28;20037;-62
2024/01/13 17:24:25;;;;;;;67.43;28.23;;;;;;;3.77;100.00;101058.03;8349829;28;20068;-56
2024/01/13 17:28:29;;;;;;;67.65;28.42;;;;;;;3.77;100.00;101064.25;8348552;28;20458;-59
2024/01/13 17:32:31;;;;;;;72.80;29.30;;;;;;;3.75;100.00;101066.13;8349545;28;20460;-58
2024/01/13 17:36:31;;;;;;;70.60;28.80;;;;;;;3.71;100.00;101050.34;8346799;28;20048;-57
2024/01/13 17:40:32;;;;;;;72.40;29.20;;;;;;;3.66;100.00;101055.09;8348115;28;20552;-56
2024/01/13 17:44:32;;;;;;;75.80;30.17;;;;;;;3.62;100.00;101046.38;8349551;28;20052;-56
2024/01/13 17:48:33;;;;;;;72.00;29.13;;;;;;;3.58;100.00;101044.81;8348963;28;20134;-56
2024/01/13 17:52:34;;;;;;;80.07;29.58;;;;;;;3.57;100.00;101034.22;8348362;28;20128;-56
2024/01/13 17:56:35;;;;;;;74.55;28.90;;;;;;;3.51;100.00;101027.38;8350485;28;20532;-57
2024/01/13 18:00:37;;;;;;;79.53;30.30;;;;;;;3.46;100.00;101018.75;8349374;28;20536;-54
2024/01/13 18:04:37;;;;;;;88.75;32.63;;;;;;;3.49;100.00;101010.59;8349814;28;20096;-55
2024/01/13 18:08:38;;;;;;;78.43;30.63;;;;;;;3.49;100.00;100997.22;8347564;28;20048;-55
2024/01/13 18:12:39;;;;;;;78.22;28.58;;;;;;;3.48;100.00;101006.16;8348518;28;20040;-56
2024/01/13 18:16:40;;;;;;;77.35;30.17;;;;;;;3.51;100.00;101003.31;8351680;28;20139;-56
2024/01/13 18:20:41;;;;;;;88.03;31.25;;;;;;;3.54;100.00;101005.81;8352894;28;20536;-55